Fazenda Palmital Airport


Codes: SIAM/0
Name: Fazenda Palmital Airport
City: Morro Agudo
Country: Brazil
Elevation: 1709 ft.

Photos at Fazenda Palmital Airport


   Photos courtesy of SpottingLog. You can add your own sightings and photos by signing up for a free trial today.



No photos found.

Weather at Fazenda Palmital Airport


Time (UTC)DescriptionTempratureWindCloud coverageVisibilityPressureHumidity
17-Jun-2024 06:00Clear Sky16°C4 mph, N3%10000m1017hPa62%
17-Jun-2024 09:00Clear Sky16°C2 mph, NE2%10000m1017hPa64%
17-Jun-2024 12:00Clear Sky20°C4 mph, NE1%10000m1018hPa50%
17-Jun-2024 15:00Clear Sky29°C9 mph, N0%10000m1016hPa25%
17-Jun-2024 18:00Clear Sky30°C7 mph, N0%10000m1013hPa19%
17-Jun-2024 21:00Clear Sky22°C4 mph, NE0%10000m1013hPa31%
18-Jun-2024 00:00Clear Sky19°C4 mph, NE1%10000m1015hPa36%
18-Jun-2024 03:00Clear Sky17°C4 mph, NE10%10000m1015hPa44%
18-Jun-2024 06:00Few Clouds16°C4 mph, NE23%10000m1015hPa51%
18-Jun-2024 09:00Clear Sky15°C2 mph, NE1%10000m1016hPa59%
18-Jun-2024 12:00Clear Sky23°C7 mph, NE0%10000m1017hPa38%
18-Jun-2024 15:00Clear Sky30°C9 mph, N0%10000m1015hPa23%
18-Jun-2024 18:00Clear Sky31°C7 mph, N0%10000m1011hPa18%
18-Jun-2024 21:00Clear Sky24°C4 mph, N4%10000m1012hPa30%
19-Jun-2024 00:00Clear Sky20°C2 mph, NE2%10000m1014hPa35%
19-Jun-2024 03:00Clear Sky18°C2 mph, E0%10000m1015hPa42%
19-Jun-2024 06:00Clear Sky16°C2 mph, SE0%10000m1016hPa50%
19-Jun-2024 09:00Clear Sky15°C2 mph, E0%10000m1016hPa55%
19-Jun-2024 12:00Clear Sky24°C4 mph, NE0%10000m1017hPa35%
19-Jun-2024 15:00Clear Sky31°C7 mph, N0%10000m1015hPa19%
19-Jun-2024 18:00Clear Sky32°C4 mph, N0%10000m1012hPa17%
19-Jun-2024 21:00Clear Sky24°C4 mph, E0%10000m1013hPa30%
20-Jun-2024 00:00Clear Sky21°C2 mph, SE0%10000m1015hPa38%
20-Jun-2024 03:00Clear Sky19°C2 mph, SE0%10000m1016hPa43%
20-Jun-2024 06:00Clear Sky17°C0 mph, SE1%10000m1016hPa49%
20-Jun-2024 09:00Clear Sky16°C2 mph, SE4%10000m1016hPa51%
20-Jun-2024 12:00Clear Sky24°C2 mph, NE2%10000m1018hPa34%
20-Jun-2024 15:00Clear Sky33°C4 mph, NE0%10000m1015hPa16%
20-Jun-2024 18:00Clear Sky33°C2 mph, NE0%10000m1012hPa14%
20-Jun-2024 21:00Clear Sky24°C2 mph, N0%10000m1013hPa26%
21-Jun-2024 00:00Clear Sky21°C2 mph, SE0%10000m1015hPa31%
21-Jun-2024 03:00Clear Sky19°C4 mph, SE0%10000m1016hPa36%
21-Jun-2024 06:00Clear Sky18°C2 mph, E0%10000m1015hPa47%
21-Jun-2024 09:00Clear Sky17°C2 mph, SE2%10000m1015hPa55%
21-Jun-2024 12:00Few Clouds24°C4 mph, E17%10000m1017hPa38%
21-Jun-2024 15:00Scattered Clouds32°C7 mph, NE44%10000m1014hPa23%
21-Jun-2024 18:00Broken Clouds33°C7 mph, N54%10000m1012hPa22%
21-Jun-2024 21:00Broken Clouds25°C2 mph, N56%10000m1013hPa34%
22-Jun-2024 00:00Broken Clouds23°C4 mph, E54%10000m1014hPa40%
22-Jun-2024 03:00Overcast Clouds24°C4 mph, E96%10000m1014hPa41%